Time;durP1;ratioP1;P1;durP2;ratioP2;P2;SDS_P1;SDS_P2;PMS_P1;PMS_P2;Temp;Humidity;BMP_temperature;BMP_pressure;BME280_temperature;BME280_humidity;BME280_pressure;Samples;Min_cycle;Max_cycle;Signal;HPM_P1;HPM_P2
2023/04/07 00:00:46;;;;;;;6.23;5.63;;;;;;;;;;5014604;28;20240;-53
2023/04/07 00:03:12;;;;;;;6.50;5.90;;;;;;;;;;5010510;28;20651;-53
2023/04/07 00:05:38;;;;;;;5.87;5.37;;;;;;;;;;5018998;28;20233;-52
2023/04/07 00:08:04;;;;;;;6.97;6.37;;;;;;;;;;5010386;28;20238;-52
2023/04/07 00:10:30;;;;;;;6.60;5.97;;;;;;;;;;5012246;28;20195;-52
2023/04/07 00:12:56;;;;;;;6.50;5.90;;;;;;;;;;5009443;28;20214;-52
2023/04/07 00:15:22;;;;;;;7.20;6.50;;;;;;;;;;5004020;28;20190;-52
2023/04/07 00:17:48;;;;;;;7.80;7.00;;;;;;;;;;5008808;28;20183;-52
2023/04/07 00:20:14;;;;;;;7.93;6.57;;;;;;;;;;5018353;28;20712;-53
2023/04/07 00:22:41;;;;;;;6.97;6.30;;;;;;;;;;5003969;28;20576;-52
2023/04/07 00:25:07;;;;;;;8.40;7.07;;;;;;;;;;5012333;28;20188;-52
2023/04/07 00:27:33;;;;;;;8.03;7.07;;;;;;;;;;5014278;28;20266;-52
2023/04/07 00:29:59;;;;;;;7.77;6.80;;;;;;;;;;5012711;28;20194;-52
2023/04/07 00:32:25;;;;;;;7.80;7.07;;;;;;;;;;5009616;28;20228;-52
2023/04/07 00:34:51;;;;;;;8.77;7.13;;;;;;;;;;5015675;28;20185;-52
2023/04/07 00:37:18;;;;;;;7.70;7.00;;;;;;;;;;5008701;28;20214;-52
2023/04/07 00:39:45;;;;;;;7.90;7.10;;;;;;;;;;5006569;28;20250;-52
2023/04/07 00:42:11;;;;;;;7.20;6.50;;;;;;;;;;5014535;28;20189;-52
2023/04/07 00:44:37;;;;;;;7.00;6.40;;;;;;;;;;5011443;28;20413;-52
2023/04/07 00:47:03;;;;;;;10.17;7.37;;;;;;;;;;5012170;28;21066;-52
2023/04/07 00:49:30;;;;;;;7.27;6.60;;;;;;;;;;5030033;28;20645;-52
2023/04/07 00:51:57;;;;;;;10.47;6.93;;;;;;;;;;5013659;28;20201;-53
2023/04/07 00:54:23;;;;;;;7.23;6.53;;;;;;;;;;5022612;28;20615;-52
2023/04/07 00:56:49;;;;;;;6.87;6.27;;;;;;;;;;5000489;28;20209;-53
2023/04/07 00:59:15;;;;;;;7.53;6.40;;;;;;;;;;5008229;28;20186;-52
2023/04/07 01:02:00;;;;;;;9.37;6.77;;;;;;;;;;5018618;28;20720;-52
2023/04/07 01:04:32;;;;;;;6.67;6.07;;;;;;;;;;5010701;28;20174;-52
2023/04/07 01:07:06;;;;;;;6.77;6.17;;;;;;;;;;5002219;28;20182;-52
2023/04/07 01:09:42;;;;;;;7.93;7.17;;;;;;;;;;5005739;28;20193;-52
2023/04/07 01:12:20;;;;;;;8.13;7.33;;;;;;;;;;5008722;28;20201;-52
2023/04/07 01:14:50;;;;;;;7.73;7.03;;;;;;;;;;5011147;28;20213;-53
2023/04/07 01:17:17;;;;;;;6.97;6.30;;;;;;;;;;5006239;28;20228;-52
2023/04/07 01:19:46;;;;;;;7.33;6.63;;;;;;;;;;5007337;28;20213;-52
2023/04/07 01:22:15;;;;;;;7.23;6.53;;;;;;;;;;5008559;28;20226;-52
2023/04/07 01:24:59;;;;;;;8.00;7.20;;;;;;;;;;5008826;28;20270;-52
2023/04/07 01:27:38;;;;;;;6.43;5.80;;;;;;;;;;5006290;28;20189;-52
2023/04/07 01:30:06;;;;;;;7.17;6.47;;;;;;;;;;5008646;28;21552;-52
2023/04/07 01:32:35;;;;;;;6.80;6.10;;;;;;;;;;5006873;28;20702;-53
2023/04/07 01:35:02;;;;;;;9.03;6.83;;;;;;;;;;5001797;28;20182;-52
2023/04/07 01:37:29;;;;;;;6.97;6.27;;;;;;;;;;5007850;28;20247;-53
2023/04/07 01:39:55;;;;;;;6.63;6.03;;;;;;;;;;5006894;28;20289;-53
2023/04/07 01:42:21;;;;;;;6.50;5.90;;;;;;;;;;5009627;28;20265;-52
2023/04/07 01:44:47;;;;;;;7.70;7.00;;;;;;;;;;5010227;28;20182;-52
2023/04/07 01:47:15;;;;;;;7.27;6.53;;;;;;;;;;5005725;28;20521;-52
2023/04/07 01:49:41;;;;;;;7.27;6.57;;;;;;;;;;5014956;28;20439;-52
2023/04/07 01:52:07;;;;;;;6.77;6.07;;;;;;;;;;5005345;28;20552;-52
2023/04/07 01:54:34;;;;;;;6.93;6.23;;;;;;;;;;5008837;28;20190;-52
2023/04/07 01:57:00;;;;;;;6.70;6.10;;;;;;;;;;5011168;28;20205;-52
2023/04/07 01:59:27;;;;;;;6.27;5.67;;;;;;;;;;5005705;28;20210;-53
2023/04/07 02:01:53;;;;;;;6.33;5.73;;;;;;;;;;5009593;28;20256;-52
2023/04/07 02:04:28;;;;;;;7.23;6.43;;;;;;;;;;5005038;28;20242;-52
2023/04/07 02:06:56;;;;;;;7.20;6.53;;;;;;;;;;5005084;28;20602;-52
2023/04/07 02:09:23;;;;;;;7.43;6.57;;;;;;;;;;4999347;28;20222;-52
2023/04/07 02:11:50;;;;;;;7.13;6.33;;;;;;;;;;5007286;28;20596;-53
2023/04/07 02:14:16;;;;;;;7.90;6.80;;;;;;;;;;5014164;28;20181;-52
2023/04/07 02:16:43;;;;;;;6.87;6.20;;;;;;;;;;5004461;28;20582;-52
2023/04/07 02:19:09;;;;;;;8.23;7.20;;;;;;;;;;5005487;28;20187;-52
2023/04/07 02:21:35;;;;;;;7.93;7.13;;;;;;;;;;5009919;28;20234;-53
2023/04/07 02:24:02;;;;;;;8.00;7.20;;;;;;;;;;5014024;28;20670;-52
2023/04/07 02:26:32;;;;;;;8.63;7.73;;;;;;;;;;5006519;28;20658;-52
2023/04/07 02:28:58;;;;;;;7.93;7.10;;;;;;;;;;5009954;28;20508;-52
2023/04/07 02:31:24;;;;;;;8.27;7.23;;;;;;;;;;5010713;28;20256;-52
2023/04/07 02:33:50;;;;;;;8.20;7.33;;;;;;;;;;5007060;28;20237;-52
2023/04/07 02:36:16;;;;;;;8.97;8.07;;;;;;;;;;5006669;28;20766;-52
2023/04/07 02:38:42;;;;;;;8.37;7.53;;;;;;;;;;5011871;28;20200;-52
2023/04/07 02:41:08;;;;;;;9.43;8.07;;;;;;;;;;5021624;28;20259;-52
2023/04/07 02:43:34;;;;;;;10.03;8.90;;;;;;;;;;5011920;28;20186;-52
2023/04/07 02:46:00;;;;;;;9.20;8.30;;;;;;;;;;5031210;28;20181;-52
2023/04/07 02:48:26;;;;;;;13.33;9.20;;;;;;;;;;5015447;28;20190;-53
2023/04/07 02:50:52;;;;;;;10.00;8.80;;;;;;;;;;5017290;28;20733;-52
2023/04/07 02:53:18;;;;;;;9.47;8.43;;;;;;;;;;5011279;28;20178;-52
2023/04/07 02:55:45;;;;;;;9.37;8.37;;;;;;;;;;5005053;28;20301;-52
2023/04/07 02:58:11;;;;;;;10.60;8.90;;;;;;;;;;5006761;28;20176;-52
2023/04/07 03:00:37;;;;;;;10.57;9.10;;;;;;;;;;5015868;28;20192;-52
2023/04/07 03:03:03;;;;;;;11.33;9.20;;;;;;;;;;5012085;28;20178;-52
2023/04/07 03:05:29;;;;;;;11.13;9.67;;;;;;;;;;5021985;28;20217;-52
2023/04/07 03:07:55;;;;;;;10.40;9.20;;;;;;;;;;5009454;28;20174;-52
2023/04/07 03:10:22;;;;;;;11.20;10.00;;;;;;;;;;5005247;28;20258;-52
2023/04/07 03:12:48;;;;;;;12.00;9.53;;;;;;;;;;5010915;28;20740;-52
2023/04/07 03:15:14;;;;;;;9.93;8.93;;;;;;;;;;5009658;28;20192;-52
2023/04/07 03:17:40;;;;;;;10.47;9.23;;;;;;;;;;5010427;28;20236;-52
2023/04/07 03:20:07;;;;;;;12.37;9.97;;;;;;;;;;5009973;28;20174;-52
2023/04/07 03:22:33;;;;;;;11.87;10.00;;;;;;;;;;5006665;28;20232;-52
2023/04/07 03:24:59;;;;;;;10.73;9.43;;;;;;;;;;5013259;28;20174;-53
2023/04/07 03:27:25;;;;;;;12.40;9.47;;;;;;;;;;5009377;28;20684;-52
2023/04/07 03:29:52;;;;;;;9.57;8.47;;;;;;;;;;5007834;28;20631;-52
2023/04/07 03:32:18;;;;;;;11.47;8.60;;;;;;;;;;5013606;28;20244;-53
2023/04/07 03:34:44;;;;;;;10.23;8.27;;;;;;;;;;5011405;28;20533;-52
2023/04/07 03:37:10;;;;;;;10.83;8.57;;;;;;;;;;5009967;28;20696;-52
2023/04/07 03:39:36;;;;;;;10.10;8.40;;;;;;;;;;5006118;28;20665;-54
2023/04/07 03:42:02;;;;;;;9.67;7.97;;;;;;;;;;5005998;28;20240;-55
2023/04/07 03:44:28;;;;;;;11.37;9.73;;;;;;;;;;5015652;28;20232;-55
2023/04/07 03:46:55;;;;;;;11.50;9.27;;;;;;;;;;5008298;28;20194;-55
2023/04/07 03:49:21;;;;;;;13.90;9.03;;;;;;;;;;5017479;28;20622;-54
2023/04/07 03:51:47;;;;;;;10.03;8.17;;;;;;;;;;5016268;28;20751;-54
2023/04/07 03:54:13;;;;;;;12.20;9.17;;;;;;;;;;5012397;28;20706;-54
2023/04/07 03:56:39;;;;;;;9.33;8.33;;;;;;;;;;5009417;28;20203;-54
2023/04/07 03:59:05;;;;;;;9.20;8.17;;;;;;;;;;5013112;28;21777;-55
2023/04/07 04:01:31;;;;;;;10.40;8.47;;;;;;;;;;5009417;28;20229;-55
2023/04/07 04:03:57;;;;;;;10.17;8.67;;;;;;;;;;5007750;28;20249;-55
2023/04/07 04:06:25;;;;;;;11.40;8.87;;;;;;;;;;5006121;28;20282;-55
2023/04/07 04:08:51;;;;;;;9.83;8.20;;;;;;;;;;5008128;28;20190;-54
2023/04/07 04:11:17;;;;;;;11.40;8.97;;;;;;;;;;5005312;28;20206;-54
2023/04/07 04:13:43;;;;;;;9.13;6.93;;;;;;;;;;5014727;28;20198;-54
2023/04/07 04:16:09;;;;;;;11.10;7.90;;;;;;;;;;5009212;28;20214;-54
2023/04/07 04:18:35;;;;;;;8.77;7.10;;;;;;;;;;5009417;28;20178;-54
2023/04/07 04:21:01;;;;;;;10.13;8.43;;;;;;;;;;5011309;28;20230;-54
2023/04/07 04:23:27;;;;;;;9.40;8.40;;;;;;;;;;5016747;28;20178;-54
2023/04/07 04:25:54;;;;;;;10.77;7.67;;;;;;;;;;5006560;28;20186;-55
2023/04/07 04:28:20;;;;;;;10.67;8.20;;;;;;;;;;5006354;28;20534;-55
2023/04/07 04:30:47;;;;;;;8.67;7.40;;;;;;;;;;5008435;28;20186;-54
2023/04/07 04:33:13;;;;;;;10.27;8.73;;;;;;;;;;5012955;28;20216;-54
2023/04/07 04:35:39;;;;;;;11.20;7.20;;;;;;;;;;5011265;28;20179;-54
2023/04/07 04:38:05;;;;;;;8.43;6.73;;;;;;;;;;5010576;28;20606;-54
2023/04/07 04:40:31;;;;;;;11.60;7.93;;;;;;;;;;5011004;28;20221;-55
2023/04/07 04:42:57;;;;;;;8.70;7.70;;;;;;;;;;5009671;28;20268;-55
2023/04/07 04:45:23;;;;;;;9.30;7.43;;;;;;;;;;5017382;28;20174;-55
2023/04/07 04:47:49;;;;;;;9.37;7.50;;;;;;;;;;5010399;28;20186;-54
2023/04/07 04:50:15;;;;;;;9.40;8.03;;;;;;;;;;4994813;28;20183;-54
2023/04/07 04:52:42;;;;;;;9.90;7.33;;;;;;;;;;5015203;28;20727;-54
2023/04/07 04:55:08;;;;;;;8.50;7.53;;;;;;;;;;5011130;28;20355;-54
2023/04/07 04:57:35;;;;;;;9.53;7.17;;;;;;;;;;5008875;28;20206;-54
2023/04/07 05:00:03;;;;;;;8.57;7.67;;;;;;;;;;5015877;28;20588;-54
2023/04/07 05:02:29;;;;;;;8.33;7.43;;;;;;;;;;5007494;28;20309;-54
2023/04/07 05:04:55;;;;;;;10.23;8.03;;;;;;;;;;5014210;28;20201;-54
2023/04/07 05:07:21;;;;;;;7.87;7.07;;;;;;;;;;5011103;28;20190;-55
2023/04/07 05:09:47;;;;;;;8.23;6.83;;;;;;;;;;5012032;28;20179;-54
2023/04/07 05:12:13;;;;;;;8.50;7.20;;;;;;;;;;5009264;28;20198;-54
2023/04/07 05:14:39;;;;;;;12.47;8.57;;;;;;;;;;5010942;28;20175;-54
2023/04/07 05:17:05;;;;;;;8.87;7.10;;;;;;;;;;5006662;28;20202;-55
2023/04/07 05:19:32;;;;;;;8.30;6.53;;;;;;;;;;5006446;28;20174;-54
2023/04/07 05:21:58;;;;;;;8.17;6.57;;;;;;;;;;5007962;28;20230;-54
2023/04/07 05:24:28;;;;;;;9.17;6.97;;;;;;;;;;5011251;28;20276;-54
2023/04/07 05:26:55;;;;;;;9.17;6.43;;;;;;;;;;5007554;28;20194;-55
2023/04/07 05:29:22;;;;;;;7.53;6.70;;;;;;;;;;5009107;28;20274;-55
2023/04/07 05:31:48;;;;;;;7.60;6.53;;;;;;;;;;5005818;28;20650;-55
2023/04/07 05:34:14;;;;;;;8.50;6.23;;;;;;;;;;5008887;28;20717;-55
2023/04/07 05:36:40;;;;;;;8.13;6.80;;;;;;;;;;5003917;28;20198;-55
2023/04/07 05:39:06;;;;;;;7.13;6.43;;;;;;;;;;5004583;28;20740;-55
2023/04/07 05:41:32;;;;;;;9.87;7.57;;;;;;;;;;5008535;28;20183;-55
2023/04/07 05:43:59;;;;;;;9.33;6.70;;;;;;;;;;5016080;28;20582;-55
2023/04/07 05:46:25;;;;;;;8.87;6.80;;;;;;;;;;5006065;28;20194;-54
2023/04/07 05:48:51;;;;;;;8.30;6.47;;;;;;;;;;5018706;28;20192;-54
2023/04/07 05:51:17;;;;;;;8.93;6.53;;;;;;;;;;5006545;28;20301;-54
2023/04/07 05:53:43;;;;;;;8.17;6.23;;;;;;;;;;5015704;28;20190;-54
2023/04/07 05:56:09;;;;;;;7.90;6.83;;;;;;;;;;5004774;28;20611;-55
2023/04/07 05:58:35;;;;;;;7.83;6.57;;;;;;;;;;5016769;28;20650;-55
2023/04/07 06:01:01;;;;;;;8.37;7.00;;;;;;;;;;5008016;28;20173;-54
2023/04/07 06:03:27;;;;;;;8.83;7.07;;;;;;;;;;5013161;28;20627;-54
2023/04/07 06:05:53;;;;;;;8.00;6.27;;;;;;;;;;4998987;28;20182;-55
2023/04/07 06:08:19;;;;;;;8.80;6.67;;;;;;;;;;5007283;28;20187;-54
2023/04/07 06:10:45;;;;;;;8.63;6.63;;;;;;;;;;5005514;28;20194;-55
2023/04/07 06:13:11;;;;;;;7.70;6.80;;;;;;;;;;5004148;28;20186;-54
2023/04/07 06:15:37;;;;;;;9.43;6.83;;;;;;;;;;5006561;28;20264;-55
2023/04/07 06:18:03;;;;;;;8.20;6.20;;;;;;;;;;5013066;28;20649;-56
2023/04/07 06:20:30;;;;;;;6.90;6.07;;;;;;;;;;5006794;28;20558;-54
2023/04/07 06:22:56;;;;;;;7.27;6.00;;;;;;;;;;5009961;28;20182;-54
2023/04/07 06:25:22;;;;;;;8.13;6.50;;;;;;;;;;5004616;28;20635;-55
2023/04/07 06:27:48;;;;;;;9.97;7.27;;;;;;;;;;5008652;28;20556;-54
2023/04/07 06:30:14;;;;;;;8.20;6.40;;;;;;;;;;5008693;28;20546;-54
2023/04/07 06:32:40;;;;;;;8.23;6.93;;;;;;;;;;5006717;28;20166;-54
2023/04/07 06:35:06;;;;;;;8.03;6.77;;;;;;;;;;5005450;28;20185;-54
2023/04/07 06:37:33;;;;;;;8.60;6.93;;;;;;;;;;5009801;28;20313;-54
2023/04/07 06:39:59;;;;;;;8.60;6.30;;;;;;;;;;5002627;28;20535;-54
2023/04/07 06:42:25;;;;;;;8.90;6.23;;;;;;;;;;5022155;28;20188;-54
2023/04/07 06:44:51;;;;;;;8.23;5.80;;;;;;;;;;5011509;28;20221;-54
2023/04/07 06:47:17;;;;;;;6.93;5.80;;;;;;;;;;5011261;28;20272;-54
2023/04/07 06:49:43;;;;;;;6.87;5.83;;;;;;;;;;5015102;28;20182;-54
2023/04/07 06:52:09;;;;;;;8.53;6.33;;;;;;;;;;5013626;28;20171;-54
2023/04/07 06:54:35;;;;;;;7.83;6.20;;;;;;;;;;4998690;28;20186;-54
2023/04/07 06:57:01;;;;;;;7.87;5.93;;;;;;;;;;5004960;28;20222;-54
2023/04/07 06:59:27;;;;;;;8.47;5.73;;;;;;;;;;5015313;28;20674;-54
2023/04/07 07:01:53;;;;;;;6.03;5.33;;;;;;;;;;5007219;28;20583;-55
2023/04/07 07:04:19;;;;;;;7.07;6.00;;;;;;;;;;5006154;28;20173;-54
2023/04/07 07:06:45;;;;;;;7.00;6.27;;;;;;;;;;5011959;28;20194;-55
2023/04/07 07:09:11;;;;;;;7.47;5.30;;;;;;;;;;5010067;28;20884;-54
2023/04/07 07:11:39;;;;;;;7.73;6.37;;;;;;;;;;5008277;28;20194;-54
2023/04/07 07:14:05;;;;;;;8.20;6.13;;;;;;;;;;5001284;28;20178;-54
2023/04/07 07:16:31;;;;;;;9.77;5.57;;;;;;;;;;5004871;28;20658;-54
2023/04/07 07:18:57;;;;;;;7.50;5.63;;;;;;;;;;5011554;28;20548;-54
2023/04/07 07:21:23;;;;;;;6.80;5.83;;;;;;;;;;5003815;28;20222;-56
2023/04/07 07:23:49;;;;;;;6.67;5.23;;;;;;;;;;5010739;28;20546;-54
2023/04/07 07:26:15;;;;;;;6.07;5.37;;;;;;;;;;5009257;28;20574;-54
2023/04/07 07:28:41;;;;;;;7.53;5.80;;;;;;;;;;5008077;28;20186;-54
2023/04/07 07:31:09;;;;;;;7.37;5.80;;;;;;;;;;5005321;28;20205;-54
2023/04/07 07:33:35;;;;;;;7.83;6.50;;;;;;;;;;5001886;28;20187;-54
2023/04/07 07:36:01;;;;;;;9.00;6.20;;;;;;;;;;5010872;28;20285;-53
2023/04/07 07:38:27;;;;;;;6.47;5.80;;;;;;;;;;5007911;28;20590;-54
2023/04/07 07:40:53;;;;;;;5.73;5.13;;;;;;;;;;5007292;28;20186;-54
2023/04/07 07:43:19;;;;;;;7.30;5.53;;;;;;;;;;5008922;28;20635;-54
2023/04/07 07:45:45;;;;;;;6.53;5.40;;;;;;;;;;5011306;28;20850;-54
2023/04/07 07:48:11;;;;;;;8.23;6.37;;;;;;;;;;4995846;28;20236;-53
2023/04/07 07:50:38;;;;;;;8.20;5.93;;;;;;;;;;5006743;28;20202;-53
2023/04/07 07:53:04;;;;;;;7.63;6.17;;;;;;;;;;5009482;28;20189;-54
2023/04/07 07:55:30;;;;;;;9.70;6.47;;;;;;;;;;5006694;28;20179;-54
2023/04/07 07:57:56;;;;;;;8.00;5.70;;;;;;;;;;5005737;28;20514;-53
2023/04/07 08:00:22;;;;;;;8.27;6.17;;;;;;;;;;5003375;28;20167;-54
2023/04/07 08:02:49;;;;;;;7.67;5.77;;;;;;;;;;5007499;28;20269;-53
2023/04/07 08:05:15;;;;;;;8.20;6.07;;;;;;;;;;5011935;28;20188;-53
2023/04/07 08:07:42;;;;;;;7.57;5.50;;;;;;;;;;5007372;28;20672;-56
2023/04/07 08:10:08;;;;;;;8.00;5.30;;;;;;;;;;5008296;28;20221;-54
2023/04/07 08:12:34;;;;;;;5.73;5.03;;;;;;;;;;5000819;28;20203;-54
2023/04/07 08:15:01;;;;;;;7.93;5.67;;;;;;;;;;5004385;28;20729;-54
2023/04/07 08:17:29;;;;;;;6.73;5.07;;;;;;;;;;5004377;28;20203;-54
2023/04/07 08:19:55;;;;;;;7.50;5.90;;;;;;;;;;5007438;28;20182;-53
2023/04/07 08:22:21;;;;;;;6.63;5.50;;;;;;;;;;5016029;28;20217;-54
2023/04/07 08:24:47;;;;;;;6.27;5.27;;;;;;;;;;5010870;28;20284;-54
2023/04/07 08:27:13;;;;;;;7.40;5.97;;;;;;;;;;5005156;28;20189;-54
2023/04/07 08:29:39;;;;;;;8.00;5.77;;;;;;;;;;5009197;28;20426;-54
2023/04/07 08:32:06;;;;;;;6.30;5.10;;;;;;;;;;5007329;28;20725;-54
2023/04/07 08:34:32;;;;;;;7.37;6.07;;;;;;;;;;4992657;28;20196;-53
2023/04/07 08:36:58;;;;;;;7.80;5.90;;;;;;;;;;5002230;28;20209;-54
2023/04/07 08:39:24;;;;;;;7.17;5.90;;;;;;;;;;5002429;28;20173;-54
2023/04/07 08:41:50;;;;;;;8.57;5.90;;;;;;;;;;5010304;28;20597;-55
2023/04/07 08:44:16;;;;;;;7.07;5.53;;;;;;;;;;5012186;28;20178;-54
2023/04/07 08:46:43;;;;;;;6.93;5.97;;;;;;;;;;5001572;28;20532;-54
2023/04/07 08:49:10;;;;;;;6.83;6.03;;;;;;;;;;5004687;28;20172;-53
2023/04/07 08:51:37;;;;;;;7.83;6.30;;;;;;;;;;5000618;28;20183;-54
2023/04/07 08:54:09;;;;;;;9.67;6.97;;;;;;;;;;5001788;28;20207;-54
2023/04/07 08:56:40;;;;;;;8.83;6.37;;;;;;;;;;5007153;28;20206;-54
2023/04/07 08:59:06;;;;;;;7.57;6.60;;;;;;;;;;5003938;28;20187;-53
2023/04/07 09:01:34;;;;;;;6.80;5.77;;;;;;;;;;5006416;28;20187;-52
2023/04/07 09:04:01;;;;;;;7.57;6.30;;;;;;;;;;5003564;28;20182;-53
2023/04/07 09:06:31;;;;;;;10.60;6.17;;;;;;;;;;5005149;28;20265;-53
2023/04/07 09:08:57;;;;;;;7.73;6.50;;;;;;;;;;4997755;28;20187;-53
2023/04/07 09:11:23;;;;;;;8.70;6.33;;;;;;;;;;5004356;28;20670;-53
2023/04/07 09:13:50;;;;;;;7.63;6.40;;;;;;;;;;4997769;28;20188;-53
2023/04/07 09:16:16;;;;;;;9.10;6.33;;;;;;;;;;5008697;28;20208;-53
2023/04/07 09:18:43;;;;;;;8.90;6.07;;;;;;;;;;5001936;28;20262;-53
2023/04/07 09:21:10;;;;;;;8.67;5.97;;;;;;;;;;5010576;28;20608;-53
2023/04/07 09:23:37;;;;;;;8.23;6.20;;;;;;;;;;4991599;28;20179;-53
2023/04/07 09:26:21;;;;;;;8.27;6.50;;;;;;;;;;5000369;28;20540;-53
2023/04/07 09:28:52;;;;;;;7.17;5.93;;;;;;;;;;5001150;28;20714;-52
2023/04/07 09:31:20;;;;;;;8.80;5.20;;;;;;;;;;5002225;28;20697;-52
2023/04/07 09:33:46;;;;;;;7.33;5.73;;;;;;;;;;5001834;28;20188;-53
2023/04/07 09:36:12;;;;;;;9.10;6.17;;;;;;;;;;4999645;28;20202;-52
2023/04/07 09:38:39;;;;;;;9.07;6.17;;;;;;;;;;4998437;28;20515;-52
2023/04/07 09:41:06;;;;;;;9.90;6.33;;;;;;;;;;5006155;28;20186;-53
2023/04/07 09:43:35;;;;;;;5.90;5.10;;;;;;;;;;5000562;28;20186;-52
2023/04/07 09:46:07;;;;;;;7.70;5.93;;;;;;;;;;5003259;28;20669;-52
2023/04/07 09:48:34;;;;;;;7.37;5.63;;;;;;;;;;4999638;28;20178;-52
2023/04/07 09:51:07;;;;;;;7.53;5.73;;;;;;;;;;5003707;28;20203;-52
2023/04/07 09:53:48;;;;;;;6.97;5.53;;;;;;;;;;5003067;28;20550;-53
2023/04/07 09:56:15;;;;;;;7.40;6.07;;;;;;;;;;5002806;28;20214;-52
2023/04/07 09:58:43;;;;;;;7.70;6.00;;;;;;;;;;4996198;28;20598;-52
2023/04/07 10:01:10;;;;;;;8.93;6.77;;;;;;;;;;5002224;28;20182;-53
2023/04/07 10:03:36;;;;;;;8.97;6.97;;;;;;;;;;5008552;28;20702;-53
2023/04/07 10:06:03;;;;;;;7.53;6.77;;;;;;;;;;5005549;28;20193;-52
2023/04/07 10:08:31;;;;;;;9.17;6.80;;;;;;;;;;5001330;28;20182;-53
2023/04/07 10:10:58;;;;;;;7.37;6.57;;;;;;;;;;5001380;28;20745;-52
2023/04/07 10:13:25;;;;;;;9.30;7.17;;;;;;;;;;5001907;28;20732;-53
2023/04/07 10:15:52;;;;;;;9.33;7.03;;;;;;;;;;5004794;28;20253;-52
2023/04/07 10:18:20;;;;;;;8.67;6.67;;;;;;;;;;5003238;28;20587;-52
2023/04/07 10:20:49;;;;;;;8.17;6.77;;;;;;;;;;5001667;28;20229;-53
2023/04/07 10:23:21;;;;;;;8.57;6.67;;;;;;;;;;5000293;28;20206;-52
2023/04/07 10:25:48;;;;;;;8.63;6.77;;;;;;;;;;4999419;28;20179;-52
2023/04/07 10:28:15;;;;;;;8.53;6.67;;;;;;;;;;5002258;28;20325;-53
2023/04/07 10:30:41;;;;;;;8.07;6.77;;;;;;;;;;5001278;28;20208;-53
2023/04/07 10:33:07;;;;;;;9.97;7.67;;;;;;;;;;5000823;28;20273;-52
2023/04/07 10:35:52;;;;;;;11.80;7.30;;;;;;;;;;4996839;28;20586;-53
2023/04/07 10:38:18;;;;;;;10.60;7.57;;;;;;;;;;4998997;28;20584;-53
2023/04/07 10:40:45;;;;;;;9.63;7.13;;;;;;;;;;5003931;28;20182;-53
2023/04/07 10:43:11;;;;;;;10.40;7.37;;;;;;;;;;5007418;28;20179;-57
2023/04/07 10:45:53;;;;;;;8.13;6.37;;;;;;;;;;5004571;28;20190;-53
2023/04/07 10:48:19;;;;;;;8.07;6.10;;;;;;;;;;5007128;28;20186;-53
2023/04/07 10:50:46;;;;;;;7.20;5.73;;;;;;;;;;5016367;28;20316;-53
2023/04/07 10:53:16;;;;;;;9.47;6.73;;;;;;;;;;5007589;28;20184;-53
2023/04/07 10:55:46;;;;;;;8.50;6.80;;;;;;;;;;4998248;28;20193;-52
2023/04/07 10:58:22;;;;;;;7.93;6.17;;;;;;;;;;5009231;28;20186;-53
2023/04/07 11:01:00;;;;;;;8.27;6.07;;;;;;;;;;5011435;28;20182;-53
2023/04/07 11:03:28;;;;;;;8.53;6.13;;;;;;;;;;5011877;28;20186;-53
2023/04/07 11:06:03;;;;;;;7.27;5.73;;;;;;;;;;5018784;28;20190;-53
2023/04/07 11:08:33;;;;;;;7.93;5.93;;;;;;;;;;5011722;28;20178;-53
2023/04/07 11:10:59;;;;;;;6.47;5.80;;;;;;;;;;5018850;28;20217;-53
2023/04/07 11:13:26;;;;;;;8.70;6.20;;;;;;;;;;5006142;28;20186;-53
2023/04/07 11:15:52;;;;;;;6.53;5.60;;;;;;;;;;5003918;28;20182;-54
2023/04/07 11:18:24;;;;;;;6.73;5.47;;;;;;;;;;5009001;28;20186;-55
2023/04/07 11:20:54;;;;;;;8.27;6.03;;;;;;;;;;5009406;28;20320;-54
2023/04/07 11:23:24;;;;;;;6.17;5.57;;;;;;;;;;5003496;28;20362;-54
2023/04/07 11:25:52;;;;;;;6.23;5.63;;;;;;;;;;5016136;28;20191;-53
2023/04/07 11:28:18;;;;;;;6.30;5.20;;;;;;;;;;5008014;28;20276;-54
2023/04/07 11:30:45;;;;;;;7.13;5.30;;;;;;;;;;5011712;28;20177;-54
2023/04/07 11:33:14;;;;;;;5.37;4.87;;;;;;;;;;5009701;28;20565;-54
2023/04/07 11:35:47;;;;;;;7.23;5.40;;;;;;;;;;5002312;28;20207;-54
2023/04/07 11:38:13;;;;;;;6.20;5.50;;;;;;;;;;5002601;28;20236;-54
2023/04/07 11:40:39;;;;;;;7.43;5.50;;;;;;;;;;5013120;28;20178;-54
2023/04/07 11:43:18;;;;;;;6.03;5.20;;;;;;;;;;5010752;28;20237;-54
2023/04/07 11:45:44;;;;;;;5.63;5.13;;;;;;;;;;5007171;28;20670;-54
2023/04/07 11:48:30;;;;;;;6.87;5.07;;;;;;;;;;5007326;28;20178;-52
2023/04/07 11:50:57;;;;;;;6.20;5.60;;;;;;;;;;5011273;28;20193;-52
2023/04/07 11:53:27;;;;;;;6.57;5.17;;;;;;;;;;5005086;28;20187;-53
2023/04/07 11:56:11;;;;;;;8.00;5.93;;;;;;;;;;5008585;28;20205;-52
2023/04/07 11:58:37;;;;;;;6.00;5.40;;;;;;;;;;5006036;28;20210;-52
2023/04/07 12:01:07;;;;;;;6.53;5.87;;;;;;;;;;5008731;28;20182;-52
2023/04/07 12:03:34;;;;;;;7.67;5.63;;;;;;;;;;5002979;28;21017;-52
2023/04/07 12:06:01;;;;;;;6.73;5.63;;;;;;;;;;5010701;28;20537;-52
2023/04/07 12:08:36;;;;;;;6.23;5.50;;;;;;;;;;5007089;28;20490;-52
2023/04/07 12:11:03;;;;;;;5.27;4.77;;;;;;;;;;5000924;28;20256;-52
2023/04/07 12:13:30;;;;;;;6.63;5.50;;;;;;;;;;5005395;28;20186;-52
2023/04/07 12:15:56;;;;;;;5.40;4.90;;;;;;;;;;5008494;28;20265;-51
2023/04/07 12:18:23;;;;;;;7.50;6.55;;;;;;;;;;5006414;28;20458;-54
2023/04/07 12:20:50;;;;;;;8.07;5.80;;;;;;;;;;5008878;28;20254;-53
2023/04/07 12:23:16;;;;;;;7.20;6.57;;;;;;;;;;5000238;28;20582;-53
2023/04/07 12:25:42;;;;;;;7.07;6.10;;;;;;;;;;4999957;28;20194;-52
2023/04/07 12:28:08;;;;;;;7.60;6.27;;;;;;;;;;5005564;28;20178;-52
2023/04/07 12:30:34;;;;;;;6.60;5.97;;;;;;;;;;5006362;28;20191;-52
2023/04/07 12:33:02;;;;;;;8.97;7.17;;;;;;;;;;5011122;28;20593;-53
2023/04/07 12:35:28;;;;;;;6.40;5.80;;;;;;;;;;5003358;28;20237;-52
2023/04/07 12:37:55;;;;;;;8.73;6.93;;;;;;;;;;5009808;28;20206;-52
2023/04/07 12:40:21;;;;;;;8.47;6.40;;;;;;;;;;5016311;28;20266;-52
2023/04/07 12:42:47;;;;;;;8.70;7.00;;;;;;;;;;5005978;28;20764;-53
2023/04/07 12:45:13;;;;;;;9.37;7.37;;;;;;;;;;5016696;28;20255;-52
2023/04/07 12:47:40;;;;;;;10.53;7.43;;;;;;;;;;5015979;28;20702;-52
2023/04/07 12:50:06;;;;;;;10.17;7.07;;;;;;;;;;5019220;28;20213;-52
2023/04/07 12:52:32;;;;;;;8.37;7.00;;;;;;;;;;5015039;28;20174;-52
2023/04/07 12:54:58;;;;;;;8.63;7.33;;;;;;;;;;5008652;28;20229;-52
2023/04/07 12:57:24;;;;;;;8.07;6.77;;;;;;;;;;5015126;28;20212;-51
2023/04/07 12:59:52;;;;;;;9.67;6.30;;;;;;;;;;5011537;28;20183;-52
2023/04/07 13:02:18;;;;;;;10.43;7.27;;;;;;;;;;5008977;28;20627;-52
2023/04/07 13:04:45;;;;;;;8.60;7.23;;;;;;;;;;5012139;28;20684;-52
2023/04/07 13:07:12;;;;;;;8.10;7.13;;;;;;;;;;5009098;28;20191;-52
2023/04/07 13:09:42;;;;;;;8.97;7.30;;;;;;;;;;5008199;28;20197;-52
2023/04/07 13:12:09;;;;;;;10.67;7.10;;;;;;;;;;5002947;28;20675;-51
2023/04/07 13:14:35;;;;;;;9.83;7.13;;;;;;;;;;5011745;28;20194;-52
2023/04/07 13:17:02;;;;;;;10.27;7.47;;;;;;;;;;5008907;28;20194;-52
2023/04/07 13:19:30;;;;;;;9.63;7.47;;;;;;;;;;5005074;28;20183;-52
2023/04/07 13:21:56;;;;;;;8.73;7.83;;;;;;;;;;5006359;28;20231;-51
2023/04/07 13:24:23;;;;;;;9.40;7.53;;;;;;;;;;5009313;28;20254;-52
2023/04/07 13:26:50;;;;;;;9.57;6.50;;;;;;;;;;5005641;28;20256;-51
2023/04/07 13:29:16;;;;;;;9.57;7.57;;;;;;;;;;5003866;28;20194;-53
2023/04/07 13:31:42;;;;;;;10.20;7.20;;;;;;;;;;5000974;28;20178;-52
2023/04/07 13:34:08;;;;;;;8.30;7.27;;;;;;;;;;5004282;28;20182;-53
2023/04/07 13:36:34;;;;;;;9.57;7.43;;;;;;;;;;4998541;28;20253;-52
2023/04/07 13:39:01;;;;;;;10.07;7.33;;;;;;;;;;5003319;28;20182;-52
2023/04/07 13:41:27;;;;;;;9.37;7.53;;;;;;;;;;5003327;28;20179;-53
2023/04/07 13:43:53;;;;;;;8.80;7.13;;;;;;;;;;5001638;28;20193;-52
2023/04/07 13:46:19;;;;;;;8.23;6.93;;;;;;;;;;5001813;28;20538;-52
2023/04/07 13:48:45;;;;;;;11.10;7.70;;;;;;;;;;5004854;28;20189;-52
2023/04/07 13:51:11;;;;;;;10.83;7.37;;;;;;;;;;5006117;28;20206;-53
2023/04/07 13:53:37;;;;;;;8.67;6.60;;;;;;;;;;4999515;28;20569;-52
2023/04/07 13:56:07;;;;;;;8.57;6.80;;;;;;;;;;5003179;28;20505;-53
2023/04/07 13:58:33;;;;;;;8.33;7.27;;;;;;;;;;5006843;28;20245;-52
2023/04/07 14:00:59;;;;;;;10.17;7.47;;;;;;;;;;5006450;28;20182;-52
2023/04/07 14:03:25;;;;;;;7.93;6.87;;;;;;;;;;5004392;28;21600;-53
2023/04/07 14:05:51;;;;;;;8.73;7.57;;;;;;;;;;5008322;28;20215;-53
2023/04/07 14:08:17;;;;;;;8.53;6.87;;;;;;;;;;5004026;28;20181;-60
2023/04/07 14:10:44;;;;;;;12.33;8.00;;;;;;;;;;5006161;28;20170;-52
2023/04/07 14:13:10;;;;;;;9.53;7.20;;;;;;;;;;5003625;28;20183;-52
2023/04/07 14:15:36;;;;;;;9.73;7.83;;;;;;;;;;4999050;28;20191;-51
2023/04/07 14:18:02;;;;;;;11.73;7.20;;;;;;;;;;5004904;28;20300;-52
2023/04/07 14:20:28;;;;;;;9.20;7.07;;;;;;;;;;4997324;28;20182;-52
2023/04/07 14:22:55;;;;;;;7.83;6.70;;;;;;;;;;5003870;28;20186;-51
2023/04/07 14:25:21;;;;;;;8.10;6.70;;;;;;;;;;4996757;28;20321;-52
2023/04/07 14:27:47;;;;;;;11.83;8.07;;;;;;;;;;5006019;28;20233;-51
2023/04/07 14:30:13;;;;;;;9.23;7.10;;;;;;;;;;5004912;28;20194;-52
2023/04/07 14:32:39;;;;;;;9.10;7.27;;;;;;;;;;4998202;28;20179;-52
2023/04/07 14:35:05;;;;;;;7.43;6.57;;;;;;;;;;4995522;28;20589;-53
2023/04/07 14:37:31;;;;;;;8.97;7.33;;;;;;;;;;5001152;28;20727;-54
2023/04/07 14:39:58;;;;;;;11.10;7.77;;;;;;;;;;5016086;28;20454;-51